createdAt,value
2017-07-18T00:00:36.841Z,1.97
2017-07-18T00:03:05.115Z,2.43
2017-07-18T00:05:33.616Z,1.83
2017-07-18T00:08:01.887Z,2.17
2017-07-18T00:10:30.116Z,2.03
2017-07-18T00:13:06.880Z,2.10
2017-07-18T00:15:35.900Z,1.90
2017-07-18T00:18:04.140Z,2.93
2017-07-18T00:20:32.429Z,2.20
2017-07-18T00:23:00.687Z,2.00
2017-07-18T00:25:28.963Z,2.10
2017-07-18T00:27:57.259Z,1.87
2017-07-18T00:30:25.512Z,2.10
2017-07-18T00:32:53.775Z,1.80
2017-07-18T00:35:22.096Z,2.23
2017-07-18T00:37:51.120Z,2.03
2017-07-18T00:40:19.402Z,1.80
2017-07-18T00:42:47.682Z,1.90
2017-07-18T00:45:15.928Z,2.63
2017-07-18T00:47:45.024Z,2.60
2017-07-18T00:50:14.030Z,3.20
2017-07-18T00:52:43.060Z,2.30
2017-07-18T00:55:11.341Z,2.07
2017-07-18T00:57:39.603Z,2.53
2017-07-18T01:00:08.693Z,2.53
2017-07-18T01:02:37.046Z,2.77
2017-07-18T01:05:05.893Z,3.07
2017-07-18T01:07:34.965Z,3.30
2017-07-18T01:10:03.999Z,2.90
2017-07-18T01:12:32.287Z,2.50
2017-07-18T01:15:01.344Z,2.30
2017-07-18T01:17:29.607Z,2.43
2017-07-18T01:19:57.847Z,3.63
2017-07-18T01:22:26.479Z,3.20
2017-07-18T01:24:54.711Z,3.10
2017-07-18T01:27:22.966Z,4.03
2017-07-18T01:29:52.092Z,3.10
2017-07-18T01:32:20.363Z,3.83
2017-07-18T01:34:48.716Z,2.90
2017-07-18T01:37:17.766Z,2.13
2017-07-18T01:39:46.003Z,2.60
2017-07-18T01:44:48.939Z,2.97
2017-07-18T01:47:17.222Z,2.33
2017-07-18T01:49:45.624Z,2.33
2017-07-18T01:52:14.080Z,2.40
2017-07-18T01:54:43.370Z,2.30
2017-07-18T01:57:12.526Z,2.13
2017-07-18T01:59:40.780Z,2.80
2017-07-18T02:02:09.090Z,2.53
2017-07-18T02:04:37.333Z,2.90
2017-07-18T02:07:05.644Z,3.10
2017-07-18T02:09:33.893Z,2.77
2017-07-18T02:12:02.139Z,2.97
2017-07-18T02:14:30.424Z,2.83
2017-07-18T02:16:58.655Z,3.20
2017-07-18T02:19:27.705Z,2.80
2017-07-18T02:21:55.964Z,3.17
2017-07-18T02:24:25.011Z,2.20
2017-07-18T02:26:53.320Z,3.37
2017-07-18T02:29:22.355Z,2.67
2017-07-18T02:31:50.785Z,3.13
2017-07-18T02:34:19.028Z,2.73
2017-07-18T02:36:47.263Z,2.53
2017-07-18T02:39:15.548Z,2.40
2017-07-18T02:41:43.787Z,2.53
2017-07-18T02:44:12.816Z,2.93
2017-07-18T02:46:41.087Z,2.90
2017-07-18T02:49:09.328Z,3.23
2017-07-18T02:51:37.622Z,3.60
2017-07-18T02:54:06.683Z,2.97
2017-07-18T02:56:34.915Z,2.53
2017-07-18T02:59:03.147Z,2.90
2017-07-18T03:01:31.432Z,2.80
2017-07-18T03:03:59.673Z,3.20
2017-07-18T03:06:27.953Z,3.73
2017-07-18T03:08:56.277Z,2.67
2017-07-18T03:11:24.518Z,3.17
2017-07-18T03:13:52.815Z,3.07
2017-07-18T03:16:21.049Z,3.20
2017-07-18T03:18:49.301Z,2.90
2017-07-18T03:21:17.571Z,3.30
2017-07-18T03:23:46.560Z,3.30
2017-07-18T03:26:15.720Z,3.10
2017-07-18T03:28:44.026Z,2.77
2017-07-18T03:31:13.032Z,3.57
2017-07-18T03:33:41.291Z,2.90
2017-07-18T03:36:10.352Z,3.10
2017-07-18T03:38:38.659Z,3.33
2017-07-18T03:41:06.927Z,3.30
2017-07-18T03:43:35.239Z,3.13
2017-07-18T03:46:03.478Z,3.40
2017-07-18T03:48:31.728Z,4.40
2017-07-18T03:51:00.006Z,3.40
2017-07-18T03:53:28.281Z,3.50
2017-07-18T03:55:56.515Z,3.63
2017-07-18T03:58:24.806Z,3.67
2017-07-18T04:00:53.085Z,3.60
2017-07-18T04:03:21.346Z,3.77
2017-07-18T04:05:49.605Z,4.60
2017-07-18T04:08:18.654Z,3.97
2017-07-18T04:10:46.899Z,4.37
2017-07-18T04:13:15.152Z,3.50
2017-07-18T04:15:43.425Z,3.53
2017-07-18T04:18:12.464Z,3.60
2017-07-18T04:20:40.685Z,3.20
2017-07-18T04:23:08.964Z,3.70
2017-07-18T04:25:37.202Z,4.80
2017-07-18T04:28:05.510Z,3.60
2017-07-18T04:30:34.545Z,4.00
2017-07-18T04:33:02.804Z,5.17
2017-07-18T04:35:31.822Z,3.90
2017-07-18T04:38:00.079Z,4.27
2017-07-18T04:40:28.383Z,3.90
2017-07-18T04:42:56.636Z,4.57
2017-07-18T04:45:24.901Z,4.53
2017-07-18T04:47:53.249Z,4.43
2017-07-18T04:50:21.507Z,4.40
2017-07-18T04:52:49.751Z,4.13
2017-07-18T04:55:18.008Z,5.47
2017-07-18T04:57:46.260Z,4.80
2017-07-18T05:00:15.299Z,4.70
2017-07-18T05:02:43.578Z,4.10
2017-07-18T05:05:11.905Z,4.87
2017-07-18T05:07:40.123Z,5.53
2017-07-18T05:10:08.607Z,5.40
2017-07-18T05:12:37.619Z,5.37
2017-07-18T05:15:05.876Z,5.60
2017-07-18T05:17:34.167Z,5.90
2017-07-18T05:20:02.499Z,5.87
2017-07-18T05:22:30.725Z,5.50
2017-07-18T05:24:58.995Z,5.60
2017-07-18T05:27:27.344Z,5.40
2017-07-18T05:29:55.598Z,5.13
2017-07-18T05:32:23.830Z,5.10
2017-07-18T05:34:52.108Z,5.47
2017-07-18T05:37:20.347Z,5.00
2017-07-18T05:39:48.697Z,5.80
2017-07-18T05:42:16.968Z,5.53
2017-07-18T05:44:45.276Z,5.80
2017-07-18T05:47:14.299Z,6.50
2017-07-18T05:49:42.531Z,5.20
2017-07-18T05:52:10.809Z,6.10
2017-07-18T05:54:39.843Z,5.43
2017-07-18T05:57:08.103Z,6.07
2017-07-18T05:59:36.351Z,6.80
2017-07-18T06:02:05.475Z,5.00
2017-07-18T06:04:33.720Z,5.07
2017-07-18T06:07:02.727Z,5.10
2017-07-18T06:09:31.043Z,4.67
2017-07-18T06:11:59.280Z,5.70
2017-07-18T06:14:27.536Z,4.90
2017-07-18T06:16:55.877Z,5.30
2017-07-18T06:19:24.126Z,5.60
2017-07-18T06:21:52.391Z,5.83
2017-07-18T06:24:20.687Z,5.57
2017-07-18T06:26:48.940Z,5.40
2017-07-18T06:29:17.958Z,4.47
2017-07-18T06:31:46.322Z,5.23
2017-07-18T06:34:15.580Z,5.77
2017-07-18T06:36:43.867Z,5.10
2017-07-18T06:39:12.128Z,5.03
2017-07-18T06:41:40.385Z,4.73
2017-07-18T06:44:08.673Z,4.50
2017-07-18T06:46:37.953Z,4.60
2017-07-18T06:49:06.208Z,5.93
2017-07-18T06:51:34.456Z,4.90
2017-07-18T06:54:02.730Z,5.30
2017-07-18T06:56:31.823Z,5.33
2017-07-18T06:59:00.081Z,4.50
2017-07-18T07:01:28.391Z,3.73
2017-07-18T07:03:59.520Z,4.97
2017-07-18T07:06:28.589Z,4.70
2017-07-18T07:08:58.940Z,4.10
2017-07-18T07:11:27.277Z,4.40
2017-07-18T07:13:55.601Z,3.30
2017-07-18T07:16:24.680Z,3.40
2017-07-18T07:18:53.036Z,3.17
2017-07-18T07:21:21.287Z,2.80
2017-07-18T07:23:49.636Z,3.50
2017-07-18T07:26:18.729Z,3.57
2017-07-18T07:28:47.805Z,2.80
2017-07-18T07:31:16.121Z,3.20
2017-07-18T07:33:44.416Z,4.10
2017-07-18T07:36:13.765Z,3.10
2017-07-18T07:38:42.498Z,2.40
2017-07-18T07:41:10.830Z,2.60
2017-07-18T07:43:39.066Z,3.23
2017-07-18T07:46:07.361Z,4.80
2017-07-18T07:48:35.627Z,3.20
2017-07-18T07:51:03.908Z,3.53
2017-07-18T07:53:32.235Z,3.03
2017-07-18T07:56:00.482Z,2.57
2017-07-18T07:58:29.138Z,2.57
2017-07-18T08:00:58.247Z,3.07
2017-07-18T08:03:26.762Z,2.43
2017-07-18T08:06:18.147Z,2.70
2017-07-18T08:08:46.411Z,3.27
2017-07-18T08:11:14.757Z,2.50
2017-07-18T08:13:43.845Z,2.97
2017-07-18T08:16:12.846Z,2.47
2017-07-18T08:18:41.126Z,2.40
2017-07-18T08:21:09.446Z,3.27
2017-07-18T08:23:37.677Z,3.00
2017-07-18T08:26:05.938Z,3.20
2017-07-18T08:28:34.983Z,3.70
2017-07-18T08:31:03.996Z,3.57
2017-07-18T08:33:32.369Z,2.97
2017-07-18T08:36:00.667Z,3.40
2017-07-18T08:41:30.503Z,3.30
2017-07-18T08:43:59.594Z,2.77
2017-07-18T08:46:28.611Z,3.03
2017-07-18T08:48:57.001Z,2.60
2017-07-18T08:51:25.251Z,3.00
2017-07-18T08:56:46.955Z,2.60
2017-07-18T08:59:15.220Z,3.60
2017-07-18T09:01:43.712Z,2.90
2017-07-18T09:04:13.813Z,2.93
2017-07-18T09:06:42.389Z,3.40
2017-07-18T09:09:10.663Z,3.03
2017-07-18T09:11:38.966Z,4.03
2017-07-18T09:14:07.245Z,3.20
2017-07-18T09:16:35.540Z,2.87
2017-07-18T09:19:03.843Z,2.80
2017-07-18T09:21:32.079Z,3.17
2017-07-18T09:24:00.417Z,3.97
2017-07-18T09:26:28.673Z,3.87
2017-07-18T09:28:57.768Z,4.90
2017-07-18T09:31:26.050Z,3.70
2017-07-18T09:33:54.356Z,3.27
2017-07-18T09:36:22.658Z,2.97
2017-07-18T09:38:50.958Z,3.70
2017-07-18T09:41:19.293Z,3.67
2017-07-18T09:43:47.574Z,3.77
2017-07-18T09:46:15.852Z,3.00
2017-07-18T09:48:44.116Z,2.90
2017-07-18T09:51:12.398Z,2.50
2017-07-18T09:53:40.698Z,3.07
2017-07-18T09:56:09.000Z,3.60
2017-07-18T09:58:37.317Z,3.70
2017-07-18T10:01:05.664Z,2.83
2017-07-18T10:03:33.954Z,2.80
2017-07-18T10:06:02.318Z,2.90
2017-07-18T10:08:30.605Z,3.73
2017-07-18T10:10:58.917Z,2.87
2017-07-18T10:13:27.170Z,2.67
2017-07-18T10:15:56.261Z,3.30
2017-07-18T10:18:24.553Z,3.90
2017-07-18T10:20:52.858Z,3.33
2017-07-18T10:23:21.133Z,3.17
2017-07-18T10:25:49.414Z,2.87
2017-07-18T10:28:17.721Z,2.97
2017-07-18T10:30:45.958Z,3.30
2017-07-18T10:33:14.340Z,2.90
2017-07-18T10:35:42.578Z,2.33
2017-07-18T10:38:10.853Z,3.07
2017-07-18T10:40:39.219Z,2.70
2017-07-18T10:43:08.246Z,3.57
2017-07-18T10:45:36.507Z,2.80
2017-07-18T10:48:05.616Z,3.27
2017-07-18T10:50:33.863Z,2.67
2017-07-18T10:53:02.237Z,2.50
2017-07-18T10:55:30.538Z,2.80
2017-07-18T10:57:58.793Z,2.80
2017-07-18T11:00:27.067Z,3.40
2017-07-18T11:02:55.383Z,3.30
2017-07-18T11:05:23.647Z,2.90
2017-07-18T11:07:51.920Z,2.60
2017-07-18T11:10:20.262Z,2.60
2017-07-18T11:12:49.457Z,2.80
2017-07-18T11:15:17.697Z,2.93
2017-07-18T11:17:45.991Z,3.30
2017-07-18T11:20:14.360Z,2.80
2017-07-18T11:22:42.699Z,2.70
2017-07-18T11:25:10.957Z,2.53
2017-07-18T11:27:40.089Z,2.73
2017-07-18T11:30:08.369Z,2.57
2017-07-18T11:32:36.627Z,2.13
2017-07-18T11:35:04.891Z,3.00
2017-07-18T11:37:33.935Z,2.87
2017-07-18T11:40:02.249Z,2.03
2017-07-18T11:42:31.278Z,2.57
2017-07-18T11:44:59.583Z,2.20
2017-07-18T11:47:29.508Z,2.17
2017-07-18T11:49:57.809Z,2.00
2017-07-18T11:52:26.121Z,2.73
2017-07-18T11:54:55.195Z,2.00
2017-07-18T11:57:23.479Z,1.67
2017-07-18T11:59:51.724Z,2.00
2017-07-18T12:02:20.075Z,2.40
2017-07-18T12:04:48.330Z,1.97
2017-07-18T12:07:17.545Z,2.00
2017-07-18T12:09:45.971Z,1.90
2017-07-18T12:12:15.017Z,2.10
2017-07-18T12:14:43.889Z,1.50
2017-07-18T12:17:12.180Z,1.90
2017-07-18T12:19:40.467Z,2.20
2017-07-18T12:22:08.719Z,2.20
2017-07-18T12:24:37.064Z,2.13
2017-07-18T12:27:05.370Z,2.10
2017-07-18T12:29:34.255Z,1.70
2017-07-18T12:32:02.540Z,2.80
2017-07-18T12:34:30.827Z,2.23
2017-07-18T12:36:59.301Z,1.77
2017-07-18T12:39:28.388Z,2.67
2017-07-18T12:41:56.658Z,2.13
2017-07-18T12:44:24.995Z,1.73
2017-07-18T12:46:53.265Z,1.70
2017-07-18T12:49:21.543Z,1.50
2017-07-18T12:51:49.871Z,2.10
2017-07-18T12:54:22.159Z,1.80
2017-07-18T12:56:51.351Z,1.77
2017-07-18T12:59:19.621Z,1.80
2017-07-18T13:01:47.915Z,2.03
2017-07-18T13:04:16.235Z,2.10
2017-07-18T13:06:45.143Z,1.53
2017-07-18T13:09:13.511Z,2.00
2017-07-18T13:11:41.817Z,1.80
2017-07-18T13:14:10.125Z,1.70
2017-07-18T13:16:38.544Z,2.00
2017-07-18T13:19:11.085Z,2.20
2017-07-18T13:21:44.599Z,2.00
2017-07-18T13:24:18.705Z,1.80
2017-07-18T13:26:47.877Z,2.40
2017-07-18T13:29:16.124Z,2.20
2017-07-18T13:31:47.111Z,1.70
2017-07-18T13:34:16.536Z,2.53
2017-07-18T13:36:47.350Z,2.30
2017-07-18T13:39:18.847Z,2.10
2017-07-18T13:41:48.965Z,2.30
2017-07-18T13:44:19.138Z,2.43
2017-07-18T13:46:48.426Z,2.10
2017-07-18T13:49:16.779Z,1.90
2017-07-18T13:51:45.110Z,2.60
2017-07-18T13:54:15.250Z,2.13
2017-07-18T13:56:44.505Z,2.33
2017-07-18T13:59:13.001Z,2.10
2017-07-18T14:01:41.638Z,2.20
2017-07-18T14:04:10.902Z,1.90
2017-07-18T14:06:39.286Z,5.30
2017-07-18T14:09:07.916Z,3.20
2017-07-18T14:11:36.253Z,2.90
2017-07-18T14:14:04.723Z,1.67
2017-07-18T14:16:33.065Z,2.20
2017-07-18T14:19:01.557Z,2.40
2017-07-18T14:21:29.957Z,2.20
2017-07-18T14:23:59.196Z,2.80
2017-07-18T14:26:27.574Z,1.97
2017-07-18T14:28:56.901Z,2.33
2017-07-18T14:31:25.661Z,1.70
2017-07-18T14:33:53.980Z,2.90
2017-07-18T14:36:22.235Z,2.97
2017-07-18T14:38:50.572Z,2.30
2017-07-18T14:41:18.856Z,2.43
2017-07-18T14:43:47.840Z,3.00
2017-07-18T14:46:19.502Z,2.60
2017-07-18T14:48:48.550Z,1.70
2017-07-18T14:51:16.818Z,2.07
2017-07-18T14:53:45.085Z,3.43
2017-07-18T14:56:13.435Z,2.10
2017-07-18T14:58:41.680Z,2.30
2017-07-18T15:01:09.941Z,2.60
2017-07-18T15:03:39.925Z,2.50
2017-07-18T15:06:08.991Z,2.00
2017-07-18T15:08:37.283Z,3.60
2017-07-18T15:11:05.596Z,2.20
2017-07-18T15:13:33.896Z,1.73
2017-07-18T15:16:02.171Z,1.87
2017-07-18T15:18:30.447Z,2.20
2017-07-18T15:20:58.724Z,2.30
2017-07-18T15:26:27.267Z,2.03
2017-07-18T15:28:55.557Z,2.00
2017-07-18T15:31:24.637Z,2.30
2017-07-18T15:33:53.694Z,2.50
2017-07-18T15:36:22.104Z,2.10
2017-07-18T15:38:50.405Z,2.20
2017-07-18T15:41:19.420Z,2.20
2017-07-18T15:43:47.726Z,2.53
2017-07-18T15:46:16.008Z,1.93
2017-07-18T15:48:44.317Z,2.03
2017-07-18T15:51:12.628Z,2.40
2017-07-18T15:53:40.910Z,2.63
2017-07-18T15:56:09.197Z,2.80
2017-07-18T15:58:37.526Z,2.43
2017-07-18T16:01:06.612Z,2.37
2017-07-18T16:03:34.985Z,2.50
2017-07-18T16:06:03.334Z,2.10
2017-07-18T16:08:31.645Z,2.13
2017-07-18T16:10:59.995Z,2.33
2017-07-18T16:13:28.282Z,2.33
2017-07-18T16:15:56.903Z,2.30
2017-07-18T16:18:25.264Z,2.50
2017-07-18T16:20:54.369Z,2.30
2017-07-18T16:23:22.664Z,2.53
2017-07-18T16:25:50.963Z,1.90
2017-07-18T16:28:19.286Z,2.00
2017-07-18T16:30:47.575Z,1.90
2017-07-18T16:33:16.778Z,2.20
2017-07-18T16:35:45.116Z,2.10
2017-07-18T16:38:13.546Z,1.70
2017-07-18T16:40:41.892Z,2.30
2017-07-18T16:43:11.073Z,2.93
2017-07-18T16:45:44.000Z,2.40
2017-07-18T16:48:24.753Z,2.20
2017-07-18T16:51:00.224Z,1.90
2017-07-18T16:53:31.282Z,2.20
2017-07-18T16:56:04.304Z,2.57
2017-07-18T16:58:39.027Z,3.33
2017-07-18T17:01:09.758Z,3.00
2017-07-18T17:03:38.093Z,2.33
2017-07-18T17:06:07.190Z,2.37
2017-07-18T17:08:35.427Z,2.20
2017-07-18T17:11:03.760Z,2.20
2017-07-18T17:13:32.096Z,2.20
2017-07-18T17:16:02.787Z,1.80
2017-07-18T17:18:32.511Z,3.00
2017-07-18T17:21:00.799Z,2.10
2017-07-18T17:23:29.090Z,2.13
2017-07-18T17:25:57.431Z,2.03
2017-07-18T17:28:25.695Z,2.30
2017-07-18T17:30:56.076Z,2.13
2017-07-18T17:33:25.107Z,2.30
2017-07-18T17:35:53.415Z,2.00
2017-07-18T17:38:24.412Z,2.00
2017-07-18T17:40:54.449Z,2.10
2017-07-18T17:43:32.904Z,1.90
2017-07-18T17:46:06.792Z,2.00
2017-07-18T17:48:39.626Z,1.73
2017-07-18T17:51:13.764Z,2.40
2017-07-18T17:53:50.905Z,2.23
2017-07-18T17:56:23.865Z,2.00
2017-07-18T17:58:53.043Z,2.40
2017-07-18T18:01:40.711Z,2.27
2017-07-18T18:04:17.819Z,2.47
2017-07-18T18:06:46.277Z,2.37
2017-07-18T18:09:20.809Z,2.43
2017-07-18T18:11:49.870Z,2.27
2017-07-18T18:14:18.196Z,2.17
2017-07-18T18:16:47.274Z,2.40
2017-07-18T18:19:15.656Z,2.60
2017-07-18T18:21:43.947Z,2.00
2017-07-18T18:24:13.038Z,2.00
2017-07-18T18:26:41.343Z,2.40
2017-07-18T18:29:09.645Z,1.80
2017-07-18T18:31:43.008Z,2.60
2017-07-18T18:34:11.310Z,2.23
2017-07-18T18:36:39.609Z,2.53
2017-07-18T18:39:07.917Z,2.00
2017-07-18T18:41:36.278Z,1.87
2017-07-18T18:44:04.574Z,2.03
2017-07-18T18:46:32.850Z,2.23
2017-07-18T18:49:01.936Z,2.27
2017-07-18T18:51:30.205Z,2.43
2017-07-18T18:53:59.447Z,2.43
2017-07-18T18:56:27.787Z,2.00
2017-07-18T18:58:56.110Z,1.77
2017-07-18T19:01:24.405Z,2.83
2017-07-18T19:03:53.586Z,2.63
2017-07-18T19:06:22.069Z,1.80
2017-07-18T19:08:50.397Z,2.00
2017-07-18T19:11:18.687Z,2.23
2017-07-18T19:13:47.379Z,2.87
2017-07-18T19:16:15.734Z,2.50
2017-07-18T19:18:44.045Z,2.70
2017-07-18T19:23:51.630Z,2.47
2017-07-18T19:26:22.796Z,2.53
2017-07-18T19:28:52.924Z,2.93
2017-07-18T19:31:22.022Z,2.97
2017-07-18T19:33:50.340Z,2.47
2017-07-18T19:36:19.502Z,3.70
2017-07-18T19:38:47.863Z,4.07
2017-07-18T19:41:17.043Z,2.50
2017-07-18T19:43:53.462Z,3.77
2017-07-18T19:46:21.745Z,2.50
2017-07-18T19:48:50.197Z,2.60
2017-07-18T19:51:18.509Z,2.63
2017-07-18T19:53:46.848Z,2.30
2017-07-18T19:56:17.672Z,4.60
2017-07-18T20:01:37.815Z,2.70
2017-07-18T20:04:10.639Z,2.60
2017-07-18T20:06:51.555Z,2.57
2017-07-18T20:09:21.108Z,2.13
2017-07-18T20:11:52.410Z,2.97
2017-07-18T20:14:25.333Z,2.33
2017-07-18T20:16:56.441Z,2.60
2017-07-18T20:19:26.622Z,2.87
2017-07-18T20:21:57.713Z,2.63
2017-07-18T20:24:32.743Z,2.47
2017-07-18T20:27:01.143Z,2.30
2017-07-18T20:29:29.504Z,2.90
2017-07-18T20:32:03.738Z,2.30
2017-07-18T20:34:38.701Z,2.40
2017-07-18T20:37:14.200Z,2.37
2017-07-18T20:39:49.380Z,2.43
2017-07-18T20:42:22.172Z,2.73
2017-07-18T20:44:56.631Z,2.33
2017-07-18T20:47:28.164Z,2.70
2017-07-18T20:50:00.015Z,2.70
2017-07-18T20:52:30.692Z,2.67
2017-07-18T20:54:59.879Z,2.93
2017-07-18T20:57:30.953Z,3.20
2017-07-18T21:00:04.674Z,2.83
2017-07-18T21:02:35.991Z,2.80
2017-07-18T21:05:08.281Z,3.60
2017-07-18T21:07:37.952Z,3.70
2017-07-18T21:10:12.117Z,2.83
2017-07-18T21:12:42.585Z,3.10
2017-07-18T21:15:14.103Z,3.63
2017-07-18T21:17:44.052Z,2.80
2017-07-18T21:20:17.159Z,2.87
2017-07-18T21:22:54.000Z,2.83
2017-07-18T21:25:28.780Z,2.70
2017-07-18T21:28:00.588Z,2.87
2017-07-18T21:30:33.082Z,3.13
2017-07-18T21:33:09.445Z,3.10
2017-07-18T21:35:37.787Z,3.77
2017-07-18T21:38:06.122Z,2.90
2017-07-18T21:40:34.449Z,3.33
2017-07-18T21:43:06.051Z,3.80
2017-07-18T21:45:35.812Z,2.73
2017-07-18T21:48:09.615Z,3.53
2017-07-18T21:50:40.319Z,3.53
2017-07-18T21:53:08.692Z,3.33
2017-07-18T21:55:37.030Z,3.90
2017-07-18T21:58:06.597Z,4.00
2017-07-18T22:00:34.914Z,3.50
2017-07-18T22:03:03.488Z,3.50
2017-07-18T22:05:32.540Z,3.17
2017-07-18T22:08:00.843Z,3.40
2017-07-18T22:10:29.165Z,4.20
2017-07-18T22:12:57.474Z,3.60
2017-07-18T22:15:25.747Z,4.40
2017-07-18T22:17:54.354Z,4.10
2017-07-18T22:20:22.708Z,4.07
2017-07-18T22:22:51.008Z,3.70
2017-07-18T22:25:19.329Z,3.40
2017-07-18T22:27:47.583Z,3.27
2017-07-18T22:30:15.893Z,3.83
2017-07-18T22:32:44.487Z,3.57
2017-07-18T22:35:12.762Z,4.60
2017-07-18T22:37:41.037Z,4.33
2017-07-18T22:40:09.678Z,3.40
2017-07-18T22:42:38.705Z,4.47
2017-07-18T22:45:07.246Z,4.40
2017-07-18T22:47:35.606Z,4.40
2017-07-18T22:50:03.896Z,4.67
2017-07-18T22:52:32.158Z,4.93
2017-07-18T22:55:00.460Z,4.80
2017-07-18T22:57:28.732Z,4.57
2017-07-18T22:59:57.803Z,4.10
2017-07-18T23:02:26.157Z,4.37
2017-07-18T23:04:54.488Z,4.33
2017-07-18T23:07:43.656Z,4.27
2017-07-18T23:10:11.922Z,4.17
2017-07-18T23:12:40.226Z,4.43
2017-07-18T23:15:09.493Z,4.00
2017-07-18T23:17:37.745Z,4.30
2017-07-18T23:20:06.017Z,4.40
2017-07-18T23:22:34.310Z,4.40
2017-07-18T23:25:02.632Z,4.60
2017-07-18T23:27:30.978Z,5.17
2017-07-18T23:29:59.215Z,5.27
2017-07-18T23:32:27.570Z,4.90
2017-07-18T23:34:55.849Z,4.80
2017-07-18T23:37:24.101Z,4.20
2017-07-18T23:39:52.359Z,4.50
2017-07-18T23:42:20.655Z,4.70
2017-07-18T23:44:48.950Z,4.83
2017-07-18T23:47:17.166Z,3.90
2017-07-18T23:49:45.536Z,4.80
2017-07-18T23:52:14.379Z,4.80
2017-07-18T23:54:44.132Z,4.77
2017-07-18T23:57:12.412Z,6.17
2017-07-18T23:59:40.774Z,5.23
